createdAt,value
2023-04-30T00:00:12.308Z,10.50
2023-04-30T00:02:39.972Z,10.50
2023-04-30T00:05:07.970Z,10.60
2023-04-30T00:07:35.304Z,10.60
2023-04-30T00:10:04.123Z,10.20
2023-04-30T00:15:28.591Z,10.20
2023-04-30T00:17:56.284Z,10.30
2023-04-30T00:20:23.697Z,10.30
2023-04-30T00:22:51.583Z,10.30
2023-04-30T00:25:20.380Z,10.20
2023-04-30T00:27:47.945Z,10.20
2023-04-30T00:30:15.819Z,10.10
2023-04-30T00:35:22.630Z,10.00
2023-04-30T00:37:51.296Z,10.20
2023-04-30T00:40:18.690Z,10.30
2023-04-30T00:42:45.984Z,10.30
2023-04-30T00:45:13.015Z,10.30
2023-04-30T00:47:40.348Z,10.20
2023-04-30T00:50:09.531Z,10.30
2023-04-30T00:55:21.126Z,10.10
2023-04-30T00:57:49.433Z,10.10
2023-04-30T01:00:17.489Z,9.90
2023-04-30T01:02:44.919Z,9.90
2023-04-30T01:05:12.262Z,10.00
2023-04-30T01:07:44.224Z,10.00
2023-04-30T01:10:12.417Z,10.00
2023-04-30T01:18:35.778Z,9.70
2023-04-30T01:21:06.578Z,9.70
2023-04-30T01:23:52.867Z,9.90
2023-04-30T01:26:30.463Z,9.80
2023-04-30T01:29:00.649Z,9.80
2023-04-30T01:31:29.317Z,9.80
2023-04-30T01:33:56.399Z,9.90
2023-04-30T01:41:31.689Z,9.70
2023-04-30T01:44:13.636Z,9.80
2023-04-30T01:46:42.728Z,9.70
2023-04-30T01:49:20.076Z,9.70
2023-04-30T01:51:50.478Z,9.70
2023-04-30T01:54:27.169Z,9.60
2023-04-30T01:57:04.715Z,9.60
2023-04-30T02:04:37.102Z,9.70
2023-04-30T02:07:04.540Z,9.80
2023-04-30T02:09:31.853Z,9.90
2023-04-30T02:12:03.176Z,9.90
2023-04-30T02:14:34.222Z,10.10
2023-04-30T02:17:02.493Z,10.10
2023-04-30T02:19:29.760Z,9.90
2023-04-30T02:27:01.043Z,9.90
2023-04-30T02:29:28.994Z,10.20
2023-04-30T02:31:58.477Z,10.30
2023-04-30T02:34:26.094Z,10.40
2023-04-30T02:36:53.334Z,10.40
2023-04-30T02:39:21.174Z,10.50
2023-04-30T02:41:48.943Z,10.50
2023-04-30T02:47:03.093Z,10.40
2023-04-30T02:49:30.434Z,10.50
2023-04-30T02:51:57.657Z,10.40
2023-04-30T02:54:25.224Z,10.50
2023-04-30T02:56:52.408Z,10.50
2023-04-30T02:59:19.507Z,10.50
2023-04-30T03:01:46.801Z,10.40
2023-04-30T03:07:03.662Z,10.40
2023-04-30T03:09:31.622Z,10.10
2023-04-30T03:11:59.409Z,10.10
2023-04-30T03:14:26.864Z,10.10
2023-04-30T03:16:54.225Z,10.00
2023-04-30T03:19:24.697Z,9.90
2023-04-30T03:21:52.214Z,9.90
2023-04-30T03:29:55.768Z,10.00
2023-04-30T03:32:23.488Z,10.00
2023-04-30T03:34:51.396Z,10.00
2023-04-30T03:37:18.673Z,10.00
2023-04-30T03:39:45.877Z,9.90
2023-04-30T03:42:12.999Z,9.90
2023-04-30T03:44:40.485Z,9.70
2023-04-30T03:50:01.677Z,9.70
2023-04-30T03:52:28.954Z,9.90
2023-04-30T03:54:56.268Z,9.80
2023-04-30T03:57:24.115Z,9.80
2023-04-30T03:59:51.537Z,9.60
2023-04-30T04:02:20.724Z,9.60
2023-04-30T04:04:47.848Z,9.50
2023-04-30T04:12:19.441Z,9.70
2023-04-30T04:14:49.453Z,9.60
2023-04-30T04:17:18.524Z,9.60
2023-04-30T04:19:45.925Z,9.50
2023-04-30T04:22:13.461Z,9.40
2023-04-30T04:24:41.301Z,9.60
2023-04-30T04:27:08.676Z,9.50
2023-04-30T04:37:01.813Z,9.00
2023-04-30T04:39:29.250Z,8.90
2023-04-30T04:41:56.676Z,9.10
2023-04-30T04:44:24.126Z,9.10
2023-04-30T04:46:53.430Z,9.00
2023-04-30T04:49:20.864Z,9.10
2023-04-30T04:51:48.343Z,9.00
2023-04-30T04:59:20.759Z,9.00
2023-04-30T05:01:48.073Z,8.80
2023-04-30T05:04:15.466Z,8.80
2023-04-30T05:06:43.004Z,9.00
2023-04-30T05:09:10.325Z,9.00
2023-04-30T05:11:38.654Z,9.00
2023-04-30T05:14:05.804Z,9.00
2023-04-30T05:19:18.076Z,8.90
2023-04-30T05:21:46.875Z,8.60
2023-04-30T05:24:14.544Z,8.50
2023-04-30T05:26:41.826Z,8.60
2023-04-30T05:29:10.232Z,8.70
2023-04-30T05:31:37.758Z,8.60
2023-04-30T05:34:05.332Z,8.50
2023-04-30T05:39:17.107Z,8.80
2023-04-30T05:41:44.253Z,9.00
2023-04-30T05:44:11.391Z,8.90
2023-04-30T05:46:38.754Z,8.70
2023-04-30T05:49:05.786Z,8.70
2023-04-30T05:51:33.079Z,9.00
2023-04-30T05:54:00.391Z,8.90
2023-04-30T05:59:23.360Z,9.10
2023-04-30T06:01:53.040Z,8.80
2023-04-30T06:04:20.326Z,9.00
2023-04-30T06:06:47.277Z,9.30
2023-04-30T06:09:14.460Z,9.40
2023-04-30T06:11:42.588Z,9.10
2023-04-30T06:14:11.120Z,9.20
2023-04-30T06:16:43.247Z,9.00
2023-04-30T06:24:14.558Z,8.90
2023-04-30T06:26:42.401Z,9.00
2023-04-30T06:29:09.330Z,9.10
2023-04-30T06:31:36.556Z,9.10
2023-04-30T06:34:04.169Z,9.10
2023-04-30T06:36:32.409Z,8.80
2023-04-30T06:38:59.733Z,9.30
2023-04-30T06:41:29.347Z,9.60
2023-04-30T06:49:02.174Z,9.60
2023-04-30T06:51:29.707Z,9.90
2023-04-30T06:53:57.052Z,9.60
2023-04-30T06:56:24.605Z,9.80
2023-04-30T06:58:51.897Z,9.80
2023-04-30T07:01:19.991Z,9.60
2023-04-30T07:03:47.366Z,9.50
2023-04-30T07:06:16.001Z,9.40
2023-04-30T07:13:43.997Z,9.40
2023-04-30T07:16:11.727Z,9.60
2023-04-30T07:18:40.388Z,9.50
2023-04-30T07:21:08.994Z,9.40
2023-04-30T07:23:36.248Z,9.50
2023-04-30T07:26:03.568Z,9.60
2023-04-30T07:28:30.722Z,9.50
2023-04-30T07:38:53.747Z,9.80
2023-04-30T07:41:21.325Z,9.80
2023-04-30T07:43:48.334Z,9.90
2023-04-30T07:46:15.540Z,10.00
2023-04-30T07:48:42.748Z,10.30
2023-04-30T07:51:10.223Z,10.30
2023-04-30T07:53:37.585Z,10.20
2023-04-30T07:56:07.798Z,10.30
2023-04-30T08:03:39.364Z,10.90
2023-04-30T08:06:07.682Z,10.90
2023-04-30T08:08:35.037Z,11.00
2023-04-30T08:11:02.455Z,11.10
2023-04-30T08:13:30.600Z,11.20
2023-04-30T08:15:57.786Z,11.30
2023-04-30T08:18:25.089Z,11.10
2023-04-30T08:23:36.639Z,11.00
2023-04-30T08:26:04.020Z,11.30
2023-04-30T08:28:31.549Z,11.40
2023-04-30T08:30:58.976Z,11.40
2023-04-30T08:33:26.628Z,11.60
2023-04-30T08:35:54.304Z,11.60
2023-04-30T08:38:21.535Z,11.50
2023-04-30T08:43:40.476Z,11.40
2023-04-30T08:46:08.160Z,11.40
2023-04-30T08:48:36.228Z,11.60
2023-04-30T08:51:04.673Z,11.80
2023-04-30T08:53:35.763Z,12.10
2023-04-30T08:56:03.984Z,12.20
2023-04-30T08:58:31.396Z,12.20
2023-04-30T09:03:38.234Z,12.20
2023-04-30T09:06:06.129Z,12.70
2023-04-30T09:08:47.569Z,12.60
2023-04-30T09:11:27.038Z,12.50
2023-04-30T09:13:57.509Z,13.10
2023-04-30T09:16:25.841Z,13.20
2023-04-30T09:18:58.491Z,13.40
2023-04-30T09:26:37.984Z,13.40
2023-04-30T09:29:08.351Z,13.60
2023-04-30T09:31:36.514Z,13.40
2023-04-30T09:34:04.649Z,13.50
2023-04-30T09:36:32.131Z,13.60
2023-04-30T09:39:10.256Z,13.60
2023-04-30T09:41:39.661Z,13.60
2023-04-30T09:51:33.019Z,14.80
2023-04-30T09:54:03.684Z,16.30
2023-04-30T09:56:36.327Z,15.70
2023-04-30T09:59:06.676Z,15.10
2023-04-30T10:01:37.976Z,15.60
2023-04-30T10:04:07.232Z,15.50
2023-04-30T10:06:35.878Z,16.30
2023-04-30T10:16:44.696Z,16.30
2023-04-30T10:19:16.746Z,15.60
2023-04-30T10:21:46.134Z,15.00
2023-04-30T10:24:14.533Z,14.70
2023-04-30T10:26:43.043Z,14.60
2023-04-30T10:29:11.223Z,14.70
2023-04-30T10:31:39.749Z,15.20
2023-04-30T10:37:18.106Z,15.30
2023-04-30T10:39:46.154Z,15.50
2023-04-30T10:42:13.605Z,15.40
2023-04-30T10:44:42.447Z,15.40
2023-04-30T10:47:11.296Z,15.10
2023-04-30T10:49:40.467Z,15.20
2023-04-30T10:52:11.036Z,15.60
2023-04-30T10:59:44.647Z,16.80
2023-04-30T11:02:13.227Z,17.50
2023-04-30T11:05:12.293Z,17.70
2023-04-30T11:07:51.515Z,18.30
2023-04-30T11:10:23.575Z,17.40
2023-04-30T11:12:52.769Z,18.10
2023-04-30T11:15:22.520Z,18.20
2023-04-30T11:23:12.521Z,19.30
2023-04-30T11:25:44.091Z,19.00
2023-04-30T11:28:17.558Z,18.40
2023-04-30T11:30:55.170Z,18.80
2023-04-30T11:33:24.112Z,19.00
2023-04-30T11:35:52.836Z,19.30
2023-04-30T11:38:23.270Z,19.20
2023-04-30T11:43:46.304Z,18.60
2023-04-30T11:46:17.331Z,19.00
2023-04-30T11:48:46.653Z,18.80
2023-04-30T11:51:18.206Z,18.40
2023-04-30T11:53:48.151Z,18.50
2023-04-30T11:56:18.745Z,18.80
2023-04-30T11:58:49.937Z,19.10
2023-04-30T12:03:57.592Z,19.70
2023-04-30T12:06:27.045Z,20.20
2023-04-30T12:08:54.861Z,20.70
2023-04-30T12:11:25.301Z,20.90
2023-04-30T12:13:54.268Z,21.40
2023-04-30T12:16:22.178Z,21.10
2023-04-30T12:18:52.530Z,21.30
2023-04-30T12:24:09.048Z,21.60
2023-04-30T12:26:38.480Z,20.70
2023-04-30T12:29:07.287Z,20.70
2023-04-30T12:31:34.565Z,20.90
2023-04-30T12:34:06.359Z,21.30
2023-04-30T12:36:36.450Z,20.90
2023-04-30T12:39:09.483Z,21.30
2023-04-30T12:49:32.970Z,21.70
2023-04-30T12:52:02.373Z,21.40
2023-04-30T12:54:31.982Z,21.40
2023-04-30T12:57:04.321Z,21.60
2023-04-30T12:59:33.166Z,22.20
2023-04-30T13:02:08.650Z,22.20
2023-04-30T13:04:41.273Z,22.20
2023-04-30T13:12:09.773Z,22.20
2023-04-30T13:14:38.337Z,22.40
2023-04-30T13:17:06.879Z,22.10
2023-04-30T13:19:36.311Z,21.40
2023-04-30T13:22:04.115Z,21.30
2023-04-30T13:24:31.560Z,21.90
2023-04-30T13:26:59.518Z,22.30
2023-04-30T13:32:09.392Z,22.30
2023-04-30T13:34:36.625Z,21.50
2023-04-30T13:37:04.463Z,21.50
2023-04-30T13:39:34.566Z,21.20
2023-04-30T13:42:02.191Z,20.80
2023-04-30T13:44:32.105Z,20.80
2023-04-30T13:46:59.935Z,20.70
2023-04-30T13:49:29.636Z,20.50
2023-04-30T13:54:50.119Z,21.00
2023-04-30T13:57:17.783Z,20.20
2023-04-30T13:59:45.594Z,20.00
2023-04-30T14:02:13.307Z,20.30
2023-04-30T14:04:43.081Z,20.70
2023-04-30T14:07:16.108Z,21.00
2023-04-30T14:09:43.586Z,21.00
2023-04-30T14:12:12.242Z,20.70
2023-04-30T14:19:44.775Z,19.90
2023-04-30T14:22:12.376Z,20.00
2023-04-30T14:24:39.944Z,20.10
2023-04-30T14:27:08.095Z,19.90
2023-04-30T14:29:35.567Z,19.80
2023-04-30T14:32:03.836Z,19.40
2023-04-30T14:34:31.346Z,18.90
2023-04-30T14:42:07.382Z,19.60
2023-04-30T14:44:35.240Z,20.10
2023-04-30T14:47:03.620Z,20.50
2023-04-30T14:49:32.087Z,20.90
2023-04-30T14:51:59.510Z,21.00
2023-04-30T14:54:27.004Z,21.00
2023-04-30T14:57:01.050Z,21.00
2023-04-30T14:59:29.829Z,20.90
2023-04-30T15:07:31.166Z,21.10
2023-04-30T15:09:59.150Z,20.30
2023-04-30T15:12:26.632Z,20.20
2023-04-30T15:14:55.235Z,20.10
2023-04-30T15:17:22.984Z,20.20
2023-04-30T15:19:50.486Z,20.30
2023-04-30T15:22:18.130Z,20.80
2023-04-30T15:32:29.767Z,20.80
2023-04-30T15:34:57.744Z,20.70
2023-04-30T15:37:28.119Z,20.10
2023-04-30T15:39:58.878Z,19.90
2023-04-30T15:42:26.998Z,20.30
2023-04-30T15:44:54.990Z,20.50
2023-04-30T15:47:24.097Z,20.80
2023-04-30T15:53:16.791Z,20.80
2023-04-30T15:55:45.972Z,19.80
2023-04-30T15:58:14.150Z,19.30
2023-04-30T16:00:41.525Z,18.20
2023-04-30T16:03:12.289Z,17.70
2023-04-30T16:05:40.870Z,17.80
2023-04-30T16:08:09.668Z,17.90
2023-04-30T16:13:46.819Z,19.10
2023-04-30T16:16:14.437Z,19.60
2023-04-30T16:18:41.906Z,19.80
2023-04-30T16:21:09.992Z,19.40
2023-04-30T16:23:38.733Z,19.50
2023-04-30T16:26:06.449Z,19.50
2023-04-30T16:28:34.384Z,19.80
2023-04-30T16:39:05.961Z,19.60
2023-04-30T16:41:33.685Z,19.10
2023-04-30T16:44:02.049Z,19.00
2023-04-30T16:46:29.722Z,19.20
2023-04-30T16:48:57.081Z,19.70
2023-04-30T16:51:24.380Z,19.80
2023-04-30T16:53:52.287Z,19.80
2023-04-30T16:59:03.446Z,19.90
2023-04-30T17:01:31.841Z,19.80
2023-04-30T17:03:59.114Z,19.60
2023-04-30T17:06:26.903Z,19.70
2023-04-30T17:08:54.412Z,19.50
2023-04-30T17:11:23.611Z,19.60
2023-04-30T17:13:54.761Z,19.60
2023-04-30T17:16:23.742Z,19.50
2023-04-30T17:23:56.585Z,19.70
2023-04-30T17:26:24.447Z,19.60
2023-04-30T17:28:51.793Z,19.60
2023-04-30T17:31:21.905Z,19.50
2023-04-30T17:33:49.785Z,19.60
2023-04-30T17:36:17.805Z,19.50
2023-04-30T17:38:44.904Z,19.20
2023-04-30T17:49:16.784Z,19.30
2023-04-30T17:51:45.534Z,19.10
2023-04-30T17:54:13.212Z,19.10
2023-04-30T17:56:41.113Z,19.10
2023-04-30T17:59:08.591Z,19.20
2023-04-30T18:01:37.459Z,19.10
2023-04-30T18:04:08.865Z,19.10
2023-04-30T18:11:41.334Z,19.00
2023-04-30T18:14:09.162Z,19.00
2023-04-30T18:16:37.302Z,19.00
2023-04-30T18:19:06.104Z,18.90
2023-04-30T18:21:33.327Z,18.60
2023-04-30T18:24:01.750Z,18.50
2023-04-30T18:26:29.458Z,18.50
2023-04-30T18:36:45.144Z,18.30
2023-04-30T18:39:13.410Z,18.20
2023-04-30T18:41:44.264Z,18.10
2023-04-30T18:44:12.986Z,17.90
2023-04-30T18:46:42.106Z,17.90
2023-04-30T18:49:09.831Z,17.80
2023-04-30T18:51:37.250Z,17.60
2023-04-30T18:54:05.548Z,17.50
2023-04-30T19:01:38.361Z,17.50
2023-04-30T19:04:06.303Z,17.20
2023-04-30T19:06:34.307Z,17.00
2023-04-30T19:09:01.889Z,17.10
2023-04-30T19:11:29.850Z,17.20
2023-04-30T19:13:57.997Z,17.10
2023-04-30T19:16:25.797Z,16.90
2023-04-30T19:21:36.363Z,17.10
2023-04-30T19:24:05.009Z,16.70
2023-04-30T19:26:33.693Z,16.70
2023-04-30T19:29:00.961Z,16.70
2023-04-30T19:31:28.504Z,16.70
2023-04-30T19:33:58.040Z,16.50
2023-04-30T19:36:25.389Z,16.50
2023-04-30T19:46:57.710Z,16.10
2023-04-30T19:49:30.371Z,16.00
2023-04-30T19:51:58.928Z,15.80
2023-04-30T19:54:26.316Z,15.90
2023-04-30T19:56:54.071Z,16.00
2023-04-30T19:59:21.619Z,16.00
2023-04-30T20:01:48.977Z,15.90
2023-04-30T20:07:07.099Z,15.80
2023-04-30T20:09:34.590Z,15.70
2023-04-30T20:12:03.842Z,15.60
2023-04-30T20:14:33.554Z,15.50
2023-04-30T20:17:02.003Z,15.60
2023-04-30T20:19:29.618Z,15.50
2023-04-30T20:21:56.838Z,15.60
2023-04-30T20:27:07.410Z,15.60
2023-04-30T20:29:35.439Z,15.60
2023-04-30T20:32:02.905Z,15.60
2023-04-30T20:34:31.750Z,15.40
2023-04-30T20:37:00.250Z,15.40
2023-04-30T20:39:27.555Z,15.50
2023-04-30T20:41:54.932Z,15.50
2023-04-30T20:44:26.315Z,15.40
2023-04-30T20:51:33.818Z,15.50
2023-04-30T20:54:01.735Z,15.40
2023-04-30T20:56:28.733Z,15.40
2023-04-30T20:58:57.758Z,15.30
2023-04-30T21:01:25.305Z,15.30
2023-04-30T21:03:52.382Z,15.30
2023-04-30T21:06:20.214Z,15.30
2023-04-30T21:14:24.677Z,15.10
2023-04-30T21:16:55.381Z,15.10
2023-04-30T21:19:23.419Z,15.00
2023-04-30T21:21:50.781Z,15.10
2023-04-30T21:24:18.648Z,15.10
2023-04-30T21:26:46.637Z,15.00
2023-04-30T21:29:13.977Z,15.00
2023-04-30T21:35:08.226Z,14.90
2023-04-30T21:37:36.158Z,15.10
2023-04-30T21:40:03.989Z,15.00
2023-04-30T21:42:31.478Z,14.90
2023-04-30T21:44:58.894Z,15.00
2023-04-30T21:47:26.296Z,15.00
2023-04-30T21:49:54.159Z,14.90
2023-04-30T21:57:29.221Z,14.80
2023-04-30T21:59:58.522Z,14.80
2023-04-30T22:02:26.108Z,14.80
2023-04-30T22:04:54.965Z,14.70
2023-04-30T22:07:22.485Z,14.70
2023-04-30T22:09:51.006Z,14.70
2023-04-30T22:12:20.856Z,14.70
2023-04-30T22:14:53.869Z,14.60
2023-04-30T22:22:26.367Z,14.50
2023-04-30T22:24:53.786Z,14.50
2023-04-30T22:27:21.196Z,14.40
2023-04-30T22:29:49.845Z,14.50
2023-04-30T22:32:18.747Z,14.50
2023-04-30T22:34:46.649Z,14.40
2023-04-30T22:37:13.938Z,14.50
2023-04-30T22:48:01.604Z,14.30
2023-04-30T22:50:30.712Z,14.10
2023-04-30T22:52:58.536Z,14.10
2023-04-30T22:55:26.691Z,14.00
2023-04-30T22:57:54.135Z,14.10
2023-04-30T23:00:21.558Z,14.00
2023-04-30T23:02:48.572Z,13.90
2023-04-30T23:10:20.468Z,13.80
2023-04-30T23:12:47.688Z,13.90
2023-04-30T23:15:16.195Z,13.90
2023-04-30T23:17:44.199Z,13.80
2023-04-30T23:20:11.886Z,13.90
2023-04-30T23:22:38.696Z,13.90
2023-04-30T23:25:06.702Z,13.90
2023-04-30T23:30:23.109Z,13.70
2023-04-30T23:32:49.967Z,13.70
2023-04-30T23:35:17.948Z,13.80
2023-04-30T23:37:45.552Z,13.80
2023-04-30T23:40:14.631Z,13.70
2023-04-30T23:42:42.246Z,13.70
2023-04-30T23:45:10.430Z,13.60
2023-04-30T23:50:33.648Z,13.80
2023-04-30T23:53:01.489Z,13.60
2023-04-30T23:55:29.989Z,13.70
2023-04-30T23:57:57.252Z,13.60
